Time;durP1;ratioP1;P1;durP2;ratioP2;P2;SDS_P1;SDS_P2;PMS_P1;PMS_P2;Temp;Humidity;BMP_temperature;BMP_pressure;BME280_temperature;BME280_humidity;BME280_pressure;Samples;Min_cycle;Max_cycle;Signal;HPM_P1;HPM_P2
2022/06/21 00:00:43;;;;;;;64.38;50.65;;;21.70;59.00;;;;;;4944600;28;92024;-77
2022/06/21 00:03:12;;;;;;;64.88;51.03;;;21.70;59.10;;;;;;4943766;28;90871;-77
2022/06/21 00:05:44;;;;;;;65.43;51.10;;;21.70;59.10;;;;;;4939090;28;93272;-77
2022/06/21 00:08:23;;;;;;;64.40;51.05;;;21.60;59.20;;;;;;4949911;28;90526;-76
2022/06/21 00:10:51;;;;;;;63.63;50.83;;;21.70;59.30;;;;;;4933592;28;93441;-76
2022/06/21 00:13:21;;;;;;;65.43;50.85;;;21.70;59.30;;;;;;4931587;28;90481;-77
2022/06/21 00:15:49;;;;;;;64.82;51.20;;;21.60;59.20;;;;;;4932263;28;91557;-76
2022/06/21 00:18:17;;;;;;;64.05;50.75;;;21.60;59.30;;;;;;4950094;28;90044;-77
2022/06/21 00:20:44;;;;;;;64.53;50.80;;;21.60;59.30;;;;;;4945294;28;89942;-77
2022/06/21 00:23:20;;;;;;;63.70;50.88;;;21.60;59.40;;;;;;4944783;28;91046;-76
2022/06/21 00:25:46;;;;;;;65.18;50.75;;;21.60;59.50;;;;;;4939949;28;91023;-76
2022/06/21 00:28:16;;;;;;;64.00;50.80;;;21.60;59.40;;;;;;4931895;28;91489;-76
2022/06/21 00:30:43;;;;;;;63.78;50.75;;;21.60;59.40;;;;;;4919626;28;93235;-77
2022/06/21 00:33:13;;;;;;;63.80;50.92;;;21.60;59.50;;;;;;4952200;28;90087;-77
2022/06/21 00:35:45;;;;;;;63.40;50.90;;;21.60;59.50;;;;;;4929666;28;91058;-76
2022/06/21 00:38:15;;;;;;;65.72;51.10;;;21.50;59.40;;;;;;4944094;28;89794;-77
2022/06/21 00:40:41;;;;;;;64.53;50.63;;;21.50;59.40;;;;;;4938382;28;90008;-76
2022/06/21 00:43:15;;;;;;;64.32;50.78;;;21.50;59.50;;;;;;4941563;28;95643;-77
2022/06/21 00:45:44;;;;;;;65.53;50.67;;;21.50;59.60;;;;;;4935604;28;90356;-76
2022/06/21 00:48:11;;;;;;;64.10;50.83;;;21.50;59.50;;;;;;4944852;28;89477;-76
2022/06/21 00:50:47;;;;;;;64.70;50.70;;;21.50;59.60;;;;;;4947482;28;89731;-76
2022/06/21 00:53:21;;;;;;;63.80;50.78;;;21.50;59.60;;;;;;4940385;28;89998;-77
2022/06/21 00:55:58;;;;;;;64.57;50.95;;;21.50;59.60;;;;;;4919595;28;93068;-76
2022/06/21 00:58:26;;;;;;;65.90;50.80;;;21.50;59.60;;;;;;4942750;28;90779;-76
2022/06/21 01:01:21;;;;;;;62.75;50.58;;;21.40;59.70;;;;;;4943552;28;89974;-76
2022/06/21 01:03:56;;;;;;;63.33;50.72;;;21.40;59.70;;;;;;4954748;28;90264;-77
2022/06/21 01:06:34;;;;;;;63.60;50.95;;;21.40;59.80;;;;;;4931047;28;96743;-76
2022/06/21 01:09:18;;;;;;;63.33;50.63;;;21.40;59.90;;;;;;4933743;28;92440;-77
2022/06/21 01:11:50;;;;;;;64.07;50.90;;;21.40;59.80;;;;;;4918197;28;96381;-76
2022/06/21 01:14:21;;;;;;;64.35;50.53;;;21.40;59.80;;;;;;4953030;28;89540;-76
2022/06/21 01:16:46;;;;;;;63.38;50.42;;;21.30;59.90;;;;;;4939144;28;92526;-77
2022/06/21 01:19:29;;;;;;;63.03;50.35;;;21.30;60.30;;;;;;4952901;28;90186;-77
2022/06/21 01:22:00;;;;;;;63.63;50.75;;;21.40;59.90;;;;;;4937110;28;91182;-77
2022/06/21 01:24:49;;;;;;;;;;;21.30;59.80;;;;;;4930575;28;90974;-77
2022/06/21 01:27:15;;;;;;;63.33;50.35;;;21.30;59.80;;;;;;4937062;28;91358;-76
2022/06/21 01:29:41;;;;;;;62.53;50.42;;;21.30;59.90;;;;;;4929530;28;92848;-77
2022/06/21 01:32:07;;;;;;;64.07;50.72;;;21.30;59.90;;;;;;4935070;28;96706;-77
2022/06/21 01:34:33;;;;;;;63.67;50.47;;;21.30;60.00;;;;;;4932606;28;90573;-76
2022/06/21 01:37:10;;;;;;;63.50;50.80;;;21.30;60.00;;;;;;4928723;28;91863;-77
2022/06/21 01:39:38;;;;;;;63.35;50.65;;;21.30;60.00;;;;;;4945262;28;91164;-76
2022/06/21 01:42:13;;;;;;;62.85;50.58;;;21.30;60.00;;;;;;4953964;28;90045;-76
2022/06/21 01:44:44;;;;;;;63.28;50.47;;;21.20;59.90;;;;;;4948703;28;89697;-77
2022/06/21 01:47:14;;;;;;;64.55;50.90;;;21.30;60.00;;;;;;4943513;28;94135;-76
2022/06/21 01:49:49;;;;;;;63.10;50.72;;;21.20;60.00;;;;;;4948632;28;93745;-77
2022/06/21 01:52:20;;;;;;;63.88;50.63;;;21.20;60.00;;;;;;4938601;28;94629;-76
2022/06/21 01:54:54;;;;;;;63.55;50.53;;;21.20;60.80;;;;;;4922010;28;90649;-76
2022/06/21 01:57:20;;;;;;;63.78;50.30;;;21.30;60.00;;;;;;4923554;28;92910;-76
2022/06/21 01:59:48;;;;;;;63.08;50.65;;;21.20;59.90;;;;;;4950684;28;90316;-76
2022/06/21 02:02:24;;;;;;;63.95;50.65;;;21.20;60.00;;;;;;4943670;28;90578;-76
2022/06/21 02:05:04;;;;;;;63.20;50.60;;;21.20;60.00;;;;;;4929238;28;89098;-76
2022/06/21 02:07:35;;;;;;;63.20;50.47;;;21.20;60.00;;;;;;4937331;28;89646;-77
2022/06/21 02:10:11;;;;;;;63.78;50.47;;;21.20;60.10;;;;;;4946581;28;89996;-77
2022/06/21 02:12:43;;;;;;;64.72;50.60;;;21.20;60.10;;;;;;4941869;28;93264;-76
2022/06/21 02:15:20;;;;;;;62.45;50.10;;;21.20;60.00;;;;;;4937105;28;91041;-77
2022/06/21 02:17:48;;;;;;;63.42;50.80;;;21.20;60.10;;;;;;4942295;28;91058;-77
2022/06/21 02:20:28;;;;;;;62.70;50.60;;;21.10;60.10;;;;;;4958013;28;90007;-77
2022/06/21 02:22:53;;;;;;;63.28;50.40;;;21.20;60.20;;;;;;4940949;28;91117;-77
2022/06/21 02:25:22;;;;;;;63.38;50.65;;;21.10;60.20;;;;;;4948285;28;89624;-77
2022/06/21 02:27:50;;;;;;;63.60;50.67;;;21.10;61.00;;;;;;4936871;28;90945;-76
2022/06/21 02:30:22;;;;;;;63.30;50.65;;;21.10;60.30;;;;;;4929402;28;92751;-76
2022/06/21 02:32:50;;;;;;;62.90;50.38;;;21.10;60.30;;;;;;4935547;28;92704;-76
2022/06/21 02:35:25;;;;;;;63.65;50.67;;;21.00;60.10;;;;;;4952588;28;90559;-77
2022/06/21 02:37:54;;;;;;;62.60;50.55;;;21.10;60.10;;;;;;4940785;28;90899;-76
2022/06/21 02:40:42;;;;;;;63.83;50.58;;;21.10;60.30;;;;;;4939444;28;91681;-77
2022/06/21 02:43:26;;;;;;;63.38;50.55;;;21.10;60.20;;;;;;4940806;28;90660;-76
2022/06/21 02:46:10;;;;;;;64.22;50.90;;;21.10;60.30;;;;;;4942898;28;90211;-77
2022/06/21 02:48:58;;;;;;;62.42;50.38;;;21.00;60.30;;;;;;4938559;28;90362;-77
2022/06/21 02:51:28;;;;;;;62.22;50.30;;;21.00;60.40;;;;;;4952099;28;90403;-76
2022/06/21 02:54:04;;;;;;;62.47;50.23;;;21.00;60.50;;;;;;4940232;28;90673;-77
2022/06/21 02:56:46;;;;;;;62.42;50.38;;;21.00;60.50;;;;;;4916563;28;92401;-77
2022/06/21 02:59:13;;;;;;;63.08;50.50;;;21.00;60.40;;;;;;4943503;28;90448;-77
2022/06/21 03:01:47;;;;;;;64.63;50.72;;;21.00;60.50;;;;;;4949243;28;91048;-76
2022/06/21 03:04:38;;;;;;;61.53;50.15;;;21.00;60.40;;;;;;4928710;28;92413;-76
2022/06/21 03:07:05;;;;;;;63.30;50.65;;;21.00;60.50;;;;;;4935797;28;90485;-77
2022/06/21 03:09:33;;;;;;;63.90;50.50;;;21.00;60.50;;;;;;4939088;28;95732;-76
2022/06/21 03:12:05;;;;;;;64.00;50.45;;;21.00;60.50;;;;;;4962695;28;90196;-76
2022/06/21 03:14:34;;;;;;;62.95;50.40;;;21.00;60.40;;;;;;4961157;28;90247;-77
2022/06/21 03:17:02;;;;;;;62.70;50.20;;;21.00;60.50;;;;;;4967589;28;90193;-77
2022/06/21 03:19:37;;;;;;;62.40;50.53;;;20.90;60.40;;;;;;4963904;28;90271;-77
2022/06/21 03:22:20;;;;;;;63.20;50.28;;;20.90;60.40;;;;;;4969734;28;89371;-77
2022/06/21 03:24:49;;;;;;;63.15;50.65;;;20.90;60.40;;;;;;4948274;28;90033;-77
2022/06/21 03:27:28;;;;;;;62.60;50.50;;;20.90;60.60;;;;;;4963811;28;90028;-77
2022/06/21 03:29:55;;;;;;;63.33;50.38;;;20.90;60.60;;;;;;4966781;28;91109;-77
2022/06/21 03:32:22;;;;;;;62.45;50.33;;;20.90;60.60;;;;;;4967154;28;90023;-76
2022/06/21 03:34:50;;;;;;;63.40;50.35;;;20.90;60.60;;;;;;4967416;28;91012;-77
2022/06/21 03:37:16;;;;;;;64.10;50.50;;;20.90;60.60;;;;;;4952847;28;89620;-77
2022/06/21 03:42:31;;;;;;;62.90;50.38;;;20.90;60.60;;;;;;4971247;28;90033;-77
2022/06/21 03:45:21;;;;;;;63.05;50.38;;;20.90;60.50;;;;;;4960498;28;89493;-77
2022/06/21 03:47:55;;;;;;;63.72;50.63;;;20.80;60.60;;;;;;4962079;28;90734;-76
2022/06/21 03:50:33;;;;;;;63.92;50.38;;;20.90;60.70;;;;;;4962814;28;91419;-77
2022/06/21 03:53:20;;;;;;;61.85;50.35;;;20.90;60.70;;;;;;4960427;28;90261;-76
2022/06/21 03:56:00;;;;;;;63.35;50.78;;;20.90;60.80;;;;;;4952232;28;91858;-77
2022/06/21 03:58:50;;;;;;;62.55;50.58;;;20.90;60.70;;;;;;4951963;28;90507;-77
2022/06/21 04:01:45;;;;;;;62.63;50.47;;;20.90;60.60;;;;;;4952421;28;91331;-77
2022/06/21 04:04:29;;;;;;;64.97;50.92;;;20.80;60.40;;;;;;4922698;28;90562;-76
2022/06/21 04:07:00;;;;;;;63.33;50.75;;;20.80;60.40;;;;;;4960489;28;90510;-76
2022/06/21 04:09:36;;;;;;;63.63;50.45;;;20.80;60.70;;;;;;4957095;28;93380;-76
2022/06/21 04:12:18;;;;;;;65.32;50.22;;;20.80;60.60;;;;;;4945647;28;90144;-76
2022/06/21 04:14:58;;;;;;;65.45;50.47;;;20.80;60.50;;;;;;4913328;28;89554;-75
2022/06/21 04:17:44;;;;;;;62.30;50.55;;;20.80;60.60;;;;;;4933564;28;90544;-77
2022/06/21 04:20:36;;;;;;;63.95;50.65;;;20.90;60.60;;;;;;4935373;28;89629;-77
2022/06/21 04:23:17;;;;;;;61.67;50.35;;;20.90;60.40;;;;;;4949172;28;92517;-77
2022/06/21 04:25:56;;;;;;;62.42;50.45;;;20.80;60.60;;;;;;4952072;28;90971;-77
2022/06/21 04:28:31;;;;;;;64.18;50.65;;;20.80;60.50;;;;;;4939013;28;90692;-77
2022/06/21 04:31:05;;;;;;;62.92;50.17;;;20.80;60.80;;;;;;4961415;28;90134;-77
2022/06/21 04:33:56;;;;;;;63.05;50.47;;;20.80;60.70;;;;;;4956885;28;90087;-77
2022/06/21 04:36:38;;;;;;;64.97;50.60;;;20.90;60.50;;;;;;4959400;28;90076;-77
2022/06/21 04:39:09;;;;;;;63.47;50.47;;;20.80;60.60;;;;;;4949844;28;89473;-77
2022/06/21 04:41:45;;;;;;;62.15;50.55;;;20.80;61.10;;;;;;4952838;28;88704;-77
2022/06/21 04:44:34;;;;;;;62.17;50.13;;;20.80;61.00;;;;;;4952200;28;90184;-77
2022/06/21 04:47:20;;;;;;;62.85;50.28;;;20.70;61.10;;;;;;4960054;28;89881;-77
2022/06/21 04:49:48;;;;;;;64.03;50.53;;;20.70;61.10;;;;;;4951552;28;90789;-77
2022/06/21 04:52:39;;;;;;;62.13;50.63;;;20.80;61.30;;;;;;4959395;28;89967;-77
2022/06/21 04:55:12;;;;;;;61.42;49.72;;;20.80;60.90;;;;;;4944722;28;92160;-75
2022/06/21 04:57:38;;;;;;;62.55;50.15;;;20.70;60.80;;;;;;4950186;28;95540;-75
2022/06/21 05:00:10;;;;;;;63.13;50.75;;;20.70;60.80;;;;;;4926534;28;90071;-78
2022/06/21 05:02:56;;;;;;;62.47;50.28;;;20.80;60.80;;;;;;4938834;28;90272;-76
2022/06/21 05:05:27;;;;;;;63.08;50.55;;;20.80;60.90;;;;;;4943649;28;91111;-77
2022/06/21 05:08:03;;;;;;;62.22;50.20;;;20.80;60.70;;;;;;4952989;28;89138;-76
2022/06/21 05:10:34;;;;;;;63.08;50.58;;;20.80;60.20;;;;;;4960026;28;90341;-76
2022/06/21 05:13:12;;;;;;;62.90;50.53;;;20.80;60.40;;;;;;4968837;28;90005;-77
2022/06/21 05:15:40;;;;;;;63.08;50.35;;;20.90;60.30;;;;;;4945111;28;91307;-74
2022/06/21 05:18:14;;;;;;;64.47;50.47;;;20.90;60.10;;;;;;4958357;28;90579;-77
2022/06/21 05:20:49;;;;;;;64.15;50.60;;;20.90;61.10;;;;;;4952429;28;90307;-77
2022/06/21 05:23:18;;;;;;;63.72;50.25;;;21.00;60.30;;;;;;4955798;28;89640;-77
2022/06/21 05:25:45;;;;;;;63.55;50.55;;;21.00;59.90;;;;;;4944452;28;89924;-75
2022/06/21 05:28:35;;;;;;;64.55;50.80;;;21.00;59.90;;;;;;4948344;28;90456;-77
2022/06/21 05:31:08;;;;;;;63.58;50.35;;;21.00;59.90;;;;;;4929161;28;90011;-76
2022/06/21 05:33:55;;;;;;;63.95;50.28;;;21.00;60.30;;;;;;4945762;28;89759;-77
2022/06/21 05:36:27;;;;;;;65.30;50.80;;;21.00;60.10;;;;;;4948031;28;90383;-77
2022/06/21 05:39:00;;;;;;;66.47;50.88;;;21.00;60.10;;;;;;4939625;28;90098;-78
2022/06/21 05:41:34;;;;;;;63.40;50.47;;;21.10;60.40;;;;;;4949032;28;91210;-77
2022/06/21 05:44:01;;;;;;;64.00;50.85;;;21.10;59.90;;;;;;4958876;28;89935;-77
2022/06/21 05:46:30;;;;;;;65.65;50.92;;;21.20;60.00;;;;;;4951968;28;90317;-77
2022/06/21 05:49:01;;;;;;;64.30;50.78;;;21.20;59.90;;;;;;4955726;28;89876;-75
2022/06/21 05:51:30;;;;;;;65.20;51.07;;;21.20;59.80;;;;;;4947383;28;91597;-77
2022/06/21 05:54:06;;;;;;;64.65;50.92;;;21.20;59.80;;;;;;4947950;28;91167;-77
2022/06/21 05:56:34;;;;;;;66.22;50.92;;;21.20;59.90;;;;;;4942994;28;92899;-73
2022/06/21 05:59:02;;;;;;;65.25;51.05;;;21.10;60.00;;;;;;4945493;28;90180;-76
2022/06/21 06:01:34;;;;;;;64.53;50.70;;;21.10;59.90;;;;;;4934175;28;90667;-75
2022/06/21 06:04:04;;;;;;;66.47;51.17;;;21.10;60.00;;;;;;4958905;28;89499;-77
2022/06/21 06:06:34;;;;;;;64.97;51.10;;;21.10;60.10;;;;;;4947462;28;91042;-76
2022/06/21 06:09:25;;;;;;;65.95;51.08;;;21.20;59.80;;;;;;4942245;28;90597;-77
2022/06/21 06:12:16;;;;;;;66.28;51.17;;;21.10;59.90;;;;;;4957474;28;89954;-75
2022/06/21 06:14:46;;;;;;;66.28;50.88;;;21.10;59.90;;;;;;4952928;28;89869;-73
2022/06/21 06:17:39;;;;;;;66.80;51.35;;;21.10;59.70;;;;;;4942689;28;91943;-76
2022/06/21 06:20:12;;;;;;;67.13;51.28;;;21.10;59.90;;;;;;4955174;28;90985;-77
2022/06/21 06:22:48;;;;;;;70.68;51.53;;;21.10;59.70;;;;;;4955832;28;90101;-76
2022/06/21 06:25:25;;;;;;;66.53;51.08;;;21.10;59.90;;;;;;4950815;28;90554;-75
2022/06/21 06:28:01;;;;;;;63.83;50.95;;;21.20;59.90;;;;;;4960250;28;90055;-74
2022/06/21 06:30:53;;;;;;;66.18;51.05;;;21.20;60.00;;;;;;4950825;28;91318;-75
2022/06/21 06:33:31;;;;;;;64.35;51.38;;;21.30;60.00;;;;;;4954064;28;90902;-74
2022/06/21 06:36:00;;;;;;;67.03;51.60;;;21.30;59.90;;;;;;4924538;28;91054;-75
2022/06/21 06:38:28;;;;;;;66.65;51.50;;;21.30;60.10;;;;;;4940008;28;95208;-74
2022/06/21 06:41:05;;;;;;;67.57;51.17;;;21.40;59.90;;;;;;4946095;28;91887;-74
2022/06/21 06:43:54;;;;;;;68.95;51.55;;;21.40;59.90;;;;;;4938673;28;90226;-74
2022/06/21 06:46:30;;;;;;;68.32;51.33;;;21.40;59.60;;;;;;4946089;28;93420;-74
2022/06/21 06:49:07;;;;;;;65.43;50.97;;;21.40;59.60;;;;;;4953960;28;90538;-75
2022/06/21 06:51:41;;;;;;;65.68;51.28;;;21.40;59.80;;;;;;4923518;28;91327;-74
2022/06/21 06:54:31;;;;;;;66.20;51.75;;;21.50;59.70;;;;;;4968791;28;92199;-74
2022/06/21 06:57:08;;;;;;;67.22;51.60;;;21.50;59.70;;;;;;4943883;28;90445;-72
2022/06/21 06:59:36;;;;;;;66.50;51.65;;;21.50;59.70;;;;;;4931060;28;91542;-75
2022/06/21 07:02:12;;;;;;;68.88;51.75;;;21.50;59.70;;;;;;4951678;28;90924;-75
2022/06/21 07:04:44;;;;;;;66.50;51.67;;;21.50;59.50;;;;;;4956580;28;89782;-75
2022/06/21 07:07:18;;;;;;;64.78;51.40;;;21.60;59.70;;;;;;4946215;28;90252;-75
2022/06/21 07:09:48;;;;;;;64.63;51.35;;;21.60;59.30;;;;;;4943061;28;90224;-75
2022/06/21 07:12:18;;;;;;;65.68;51.28;;;21.60;59.50;;;;;;4952711;28;89946;-75
2022/06/21 07:14:46;;;;;;;66.93;51.63;;;21.60;59.50;;;;;;4939960;28;90027;-75
2022/06/21 07:17:23;;;;;;;65.50;51.20;;;21.70;59.40;;;;;;4952532;28;89386;-75
2022/06/21 07:19:52;;;;;;;66.15;51.60;;;21.70;59.30;;;;;;4955412;28;93521;-75
2022/06/21 07:22:21;;;;;;;66.25;51.25;;;21.70;59.00;;;;;;4951268;28;91009;-75
2022/06/21 07:24:54;;;;;;;66.88;51.45;;;21.80;59.30;;;;;;4954191;28;90825;-75
2022/06/21 07:27:21;;;;;;;65.25;51.17;;;21.80;59.10;;;;;;4936596;28;90007;-75
2022/06/21 07:30:14;;;;;;;65.85;51.15;;;21.70;59.10;;;;;;4952471;28;89828;-75
2022/06/21 07:32:53;;;;;;;68.63;51.58;;;21.80;59.00;;;;;;4948742;28;89436;-75
2022/06/21 07:35:33;;;;;;;65.85;51.60;;;21.90;58.90;;;;;;4956654;28;89465;-75
2022/06/21 07:38:06;;;;;;;63.97;50.97;;;22.00;58.80;;;;;;4955782;28;89661;-75
2022/06/21 07:40:40;;;;;;;64.72;51.40;;;22.00;58.70;;;;;;4929588;28;90981;-75
2022/06/21 07:43:36;;;;;;;65.47;51.17;;;22.10;58.50;;;;;;4955089;28;91023;-75
2022/06/21 07:46:07;;;;;;;65.43;51.38;;;22.20;58.30;;;;;;4952328;28;90006;-75
2022/06/21 07:49:08;;;;;;;67.28;51.63;;;22.20;58.80;;;;;;4942236;28;89843;-76
2022/06/21 07:51:43;;;;;;;65.32;51.38;;;22.20;58.30;;;;;;4945578;28;94276;-78
2022/06/21 07:54:24;;;;;;;65.70;51.45;;;22.20;58.10;;;;;;4947873;28;91293;-76
2022/06/21 07:56:57;;;;;;;66.53;51.33;;;22.20;58.20;;;;;;4911282;28;90697;-76
2022/06/21 07:59:31;;;;;;;64.80;51.22;;;22.20;58.10;;;;;;4948126;28;90010;-74
2022/06/21 08:07:51;;;;;;;65.80;51.78;;;22.30;58.30;;;;;;4945503;28;91385;-75
2022/06/21 08:10:40;;;;;;;67.35;51.63;;;22.30;58.40;;;;;;4953957;28;89450;-75
2022/06/21 08:13:06;;;;;;;65.57;51.30;;;22.30;58.60;;;;;;4956517;28;91721;-76
2022/06/21 08:15:41;;;;;;;67.13;51.70;;;22.40;58.50;;;;;;4947479;28;94284;-79
2022/06/21 08:18:23;;;;;;;65.90;51.72;;;22.40;58.70;;;;;;4948539;28;91454;-74
2022/06/21 08:20:57;;;;;;;66.22;51.70;;;22.40;58.60;;;;;;4936375;28;92249;-76
2022/06/21 08:23:33;;;;;;;66.10;51.72;;;22.50;58.60;;;;;;4949580;28;91561;-75
2022/06/21 08:26:12;;;;;;;65.68;51.58;;;22.60;58.40;;;;;;4943234;28;92810;-75
2022/06/21 08:28:56;;;;;;;68.43;52.13;;;22.70;58.10;;;;;;4940904;28;89731;-76
2022/06/21 08:31:26;;;;;;;66.93;51.53;;;22.70;58.20;;;;;;4946829;28;89477;-75
2022/06/21 08:34:00;;;;;;;65.65;51.45;;;22.70;58.00;;;;;;4942814;28;90526;-74
2022/06/21 08:36:31;;;;;;;65.30;51.85;;;22.80;57.90;;;;;;4952202;28;90366;-74
2022/06/21 08:39:17;;;;;;;;;;;22.60;58.20;;;;;;4958065;28;89888;-74
2022/06/21 08:42:20;;;;;;;65.82;51.60;;;22.50;58.80;;;;;;4941535;28;89765;-74
2022/06/21 08:47:55;;;;;;;67.82;51.60;;;22.40;59.00;;;;;;4942295;28;90399;-74
2022/06/21 08:51:08;;;;;;;66.75;51.80;;;22.40;59.10;;;;;;4955131;28;89882;-75
2022/06/21 08:53:55;;;;;;;67.30;51.65;;;22.50;59.10;;;;;;4915311;28;95615;-74
2022/06/21 08:56:27;;;;;;;66.75;51.53;;;22.50;58.90;;;;;;4955913;28;91236;-74
2022/06/21 08:59:07;;;;;;;67.85;51.75;;;22.60;58.80;;;;;;4948199;28;92408;-74
2022/06/21 09:01:57;;;;;;;67.88;51.67;;;22.60;58.70;;;;;;4940903;28;90008;-76
2022/06/21 09:04:46;;;;;;;67.50;51.78;;;22.60;58.70;;;;;;4954590;28;89601;-77
2022/06/21 09:07:29;;;;;;;65.93;51.70;;;22.60;58.60;;;;;;4936748;28;90322;-76
2022/06/21 09:10:18;;;;;;;67.85;51.67;;;22.60;58.90;;;;;;4959228;28;89967;-76
2022/06/21 09:13:01;;;;;;;67.10;51.72;;;22.70;58.80;;;;;;4965867;28;90952;-77
2022/06/21 09:15:46;;;;;;;67.65;52.15;;;22.70;59.00;;;;;;4951300;28;89854;-77
2022/06/21 09:18:24;;;;;;;67.20;51.88;;;22.70;59.10;;;;;;4956281;28;93287;-76
2022/06/21 09:21:08;;;;;;;67.82;51.97;;;22.80;59.10;;;;;;4976333;28;91336;-76
2022/06/21 09:23:58;;;;;;;68.90;52.15;;;22.80;58.90;;;;;;4946322;28;90227;-76
2022/06/21 09:26:33;;;;;;;68.20;52.05;;;22.90;59.00;;;;;;4970249;28;90262;-77
2022/06/21 09:29:18;;;;;;;66.72;51.80;;;22.90;58.80;;;;;;4967530;28;96559;-77
2022/06/21 09:32:08;;;;;;;68.40;51.92;;;23.00;58.70;;;;;;4961188;28;92112;-76
2022/06/21 09:34:53;;;;;;;67.85;51.70;;;22.90;58.60;;;;;;4971754;28;90046;-77
2022/06/21 09:37:57;;;;;;;67.88;51.85;;;22.90;58.60;;;;;;4969514;28;91123;-77
2022/06/21 09:40:54;;;;;;;66.47;51.85;;;22.90;58.50;;;;;;4905073;28;92198;-77
2022/06/21 09:43:32;;;;;;;66.97;51.92;;;22.90;58.60;;;;;;4957442;28;92983;-76
2022/06/21 09:46:13;;;;;;;68.93;52.38;;;22.90;58.50;;;;;;4960277;28;94639;-76
2022/06/21 09:48:59;;;;;;;66.47;52.03;;;22.90;58.50;;;;;;4955477;28;90955;-77
2022/06/21 09:51:53;;;;;;;70.05;52.15;;;22.90;58.50;;;;;;4978338;28;95184;-76
2022/06/21 09:54:31;;;;;;;67.30;52.25;;;22.90;58.50;;;;;;4960654;28;92998;-77
2022/06/21 09:56:56;;;;;;;67.18;52.33;;;22.90;58.70;;;;;;4973544;28;89623;-77
2022/06/21 09:59:37;;;;;;;67.50;52.15;;;22.90;58.60;;;;;;4968139;28;89007;-78
2022/06/21 10:02:21;;;;;;;65.50;51.72;;;22.90;59.20;;;;;;4973241;28;91307;-77
2022/06/21 10:05:05;;;;;;;65.68;51.97;;;22.90;58.80;;;;;;4978506;28;89988;-77
2022/06/21 10:07:48;;;;;;;67.95;52.33;;;22.90;58.80;;;;;;4956437;28;95430;-76
2022/06/21 10:10:34;;;;;;;67.82;52.38;;;22.90;58.60;;;;;;4944785;28;89984;-76
2022/06/21 10:13:28;;;;;;;68.05;52.45;;;22.80;58.40;;;;;;4956556;28;90657;-73
2022/06/21 10:16:14;;;;;;;66.97;52.15;;;22.90;58.40;;;;;;4912466;28;91688;-76
2022/06/21 10:18:46;;;;;;;66.30;52.20;;;22.90;58.60;;;;;;4917756;28;92563;-75
2022/06/21 10:21:30;;;;;;;68.28;52.50;;;22.90;58.60;;;;;;4943003;28;89920;-75
2022/06/21 10:24:13;;;;;;;67.55;52.55;;;22.90;58.50;;;;;;4950117;28;96360;-75
2022/06/21 10:26:52;;;;;;;67.68;52.85;;;22.90;58.40;;;;;;4936217;28;92708;-73
2022/06/21 10:29:33;;;;;;;69.53;52.92;;;22.80;58.40;;;;;;4935662;28;92123;-75
2022/06/21 10:32:07;;;;;;;68.07;52.97;;;22.90;58.50;;;;;;4933944;28;90720;-75
2022/06/21 10:34:36;;;;;;;66.32;52.80;;;22.90;58.30;;;;;;4946171;28;92638;-77
2022/06/21 10:37:30;;;;;;;72.28;52.97;;;23.00;58.40;;;;;;4937475;28;91130;-76
2022/06/21 10:40:11;;;;;;;67.25;52.45;;;22.90;58.20;;;;;;4944709;28;90563;-77
2022/06/21 10:42:57;;;;;;;69.82;52.75;;;23.00;58.30;;;;;;4950935;28;90339;-77
2022/06/21 10:45:44;;;;;;;70.57;52.88;;;23.00;58.20;;;;;;4912884;28;92263;-77
2022/06/21 10:48:34;;;;;;;67.15;52.55;;;23.00;58.30;;;;;;4945641;28;90265;-77
2022/06/21 10:51:14;;;;;;;66.72;52.33;;;23.00;58.20;;;;;;4948397;28;89976;-77
2022/06/21 10:53:57;;;;;;;68.60;52.70;;;23.10;58.10;;;;;;4947404;28;90633;-77
2022/06/21 10:57:14;;;;;;;68.03;52.75;;;23.10;58.10;;;;;;4946710;28;94412;-77
2022/06/21 11:03:01;;;;;;;69.32;52.45;;;23.10;58.00;;;;;;4948804;28;91340;-73
2022/06/21 11:06:01;;;;;;;70.78;52.22;;;23.10;58.00;;;;;;4946946;28;89590;-76
2022/06/21 11:08:34;;;;;;;66.05;52.05;;;23.20;57.90;;;;;;4945907;28;90962;-79
2022/06/21 11:11:30;;;;;;;67.03;52.38;;;23.20;57.90;;;;;;4954679;28;90438;-78
2022/06/21 11:14:08;;;;;;;67.63;52.03;;;23.20;58.00;;;;;;4942231;28;90575;-78
2022/06/21 11:17:18;;;;;;;67.00;52.17;;;23.20;58.00;;;;;;4964851;28;89864;-80
2022/06/21 11:19:52;;;;;;;73.32;55.58;;;23.20;58.10;;;;;;4926329;28;89988;-79
2022/06/21 11:26:04;;;;;;;;;;;;;;;;;;;;;
2022/06/21 11:36:22;;;;;;;;;;;;;;;;;;;;;
2022/06/21 11:46:35;;;;;;;74.80;55.22;;;23.20;58.30;;;;;;4924656;28;89896;-78
2022/06/21 11:49:35;;;;;;;75.22;55.60;;;23.20;58.30;;;;;;4938048;28;91450;-78
2022/06/21 11:52:39;;;;;;;72.15;55.22;;;23.20;58.30;;;;;;4898304;28;89940;-79
2022/06/21 12:02:43;;;;;;;71.45;54.78;;;23.20;58.40;;;;;;4821461;28;91095;-78
2022/06/21 12:13:02;;;;;;;;;;;;;;;;;;;;;
2022/06/21 12:16:16;;;;;;;73.68;54.55;;;23.30;58.40;;;;;;4748891;29;117972;-79
2022/06/21 12:19:35;;;;;;;;;;;;;;;;;;;;;
2022/06/21 12:23:08;;;;;;;69.82;54.28;;;23.40;58.20;;;;;;4789341;29;107464;-78
2022/06/21 12:25:51;;;;;;;72.57;54.70;;;23.40;58.20;;;;;;4785621;28;90323;-77
2022/06/21 12:28:25;;;;;;;70.70;54.33;;;23.40;58.10;;;;;;4883870;28;90213;-78
2022/06/21 12:30:52;;;;;;;68.72;53.17;;;23.50;58.10;;;;;;4887456;28;90876;-78
2022/06/21 12:33:22;;;;;;;70.93;53.75;;;23.50;58.10;;;;;;4900783;28;90030;-78
2022/06/21 12:35:57;;;;;;;68.57;53.58;;;23.50;58.10;;;;;;4895357;28;95556;-78
2022/06/21 12:38:37;;;;;;;68.10;52.95;;;23.50;58.00;;;;;;4908135;28;91766;-78
2022/06/21 12:41:22;;;;;;;69.43;53.53;;;23.50;58.30;;;;;;4904234;28;90246;-78
2022/06/21 12:43:48;;;;;;;70.88;54.25;;;23.50;58.00;;;;;;4901818;28;89861;-78
2022/06/21 12:46:30;;;;;;;69.43;53.45;;;23.50;57.90;;;;;;4916755;28;92077;-78
2022/06/21 12:49:29;;;;;;;70.88;53.38;;;23.60;57.80;;;;;;4919501;28;93306;-78
2022/06/21 12:52:47;;;;;;;68.00;52.88;;;23.60;57.80;;;;;;4909372;28;91016;-78
2022/06/21 12:55:30;;;;;;;69.43;53.92;;;23.60;57.80;;;;;;4899250;28;88994;-78
2022/06/21 12:58:03;;;;;;;69.03;53.30;;;23.60;57.80;;;;;;4916703;28;91912;-78
2022/06/21 13:00:47;;;;;;;68.78;53.20;;;23.60;57.80;;;;;;4917757;28;89979;-78
2022/06/21 13:03:35;;;;;;;69.82;53.95;;;23.60;57.70;;;;;;4923114;28;90781;-78
2022/06/21 13:06:23;;;;;;;68.47;53.33;;;23.60;57.80;;;;;;4905193;28;90398;-78
2022/06/21 13:08:59;;;;;;;69.30;53.38;;;23.60;57.80;;;;;;4919129;28;91787;-78
2022/06/21 13:12:02;;;;;;;69.93;53.45;;;23.60;57.70;;;;;;4909209;28;91178;-78
2022/06/21 13:14:42;;;;;;;69.25;53.90;;;23.70;57.70;;;;;;4923264;28;91343;-78
2022/06/21 13:17:37;;;;;;;69.30;53.47;;;23.70;57.60;;;;;;4903876;28;90768;-78
2022/06/21 13:20:04;;;;;;;67.70;53.45;;;23.70;57.60;;;;;;4918059;28;90739;-78
2022/06/21 13:23:01;;;;;;;69.53;53.38;;;23.70;57.60;;;;;;4903653;28;91288;-78
2022/06/21 13:26:00;;;;;;;68.60;53.08;;;23.70;57.50;;;;;;4920950;28;90016;-75
2022/06/21 13:28:54;;;;;;;68.50;53.42;;;23.70;57.50;;;;;;4930201;28;93468;-77
2022/06/21 13:31:30;;;;;;;69.00;53.40;;;23.70;57.50;;;;;;4915289;28;95994;-78
2022/06/21 13:34:12;;;;;;;68.65;53.10;;;23.70;57.50;;;;;;4939542;28;90702;-78
2022/06/21 13:36:47;;;;;;;71.40;53.47;;;23.80;57.50;;;;;;4936878;28;92034;-77
2022/06/21 13:39:24;;;;;;;70.18;53.38;;;23.80;57.50;;;;;;4941040;28;89853;-78
2022/06/21 13:45:12;;;;;;;70.68;53.22;;;23.70;57.50;;;;;;4940397;28;89901;-78
2022/06/21 13:47:59;;;;;;;68.60;52.95;;;23.70;57.50;;;;;;4938065;28;90843;-78
2022/06/21 13:50:32;;;;;;;68.00;52.90;;;23.80;57.60;;;;;;4934565;28;88980;-78
2022/06/21 13:53:19;;;;;;;67.85;53.38;;;23.80;57.60;;;;;;4931360;28;90089;-78
2022/06/21 13:55:54;;;;;;;68.68;53.38;;;23.80;57.60;;;;;;4938480;28;90379;-78
2022/06/21 13:58:32;;;;;;;67.75;52.80;;;23.80;57.60;;;;;;4930702;28;93088;-78
2022/06/21 14:01:20;;;;;;;68.50;53.08;;;23.80;57.60;;;;;;4937789;28;89939;-77
2022/06/21 14:04:02;;;;;;;71.60;53.03;;;23.80;57.70;;;;;;4942636;28;90757;-78
2022/06/21 14:06:38;;;;;;;67.47;53.22;;;23.80;57.70;;;;;;4936075;28;89692;-78
2022/06/21 14:09:29;;;;;;;69.03;52.47;;;23.80;57.70;;;;;;4942115;28;90343;-75
2022/06/21 14:12:34;;;;;;;71.05;52.92;;;23.80;57.70;;;;;;4933196;28;89949;-77
2022/06/21 14:15:42;;;;;;;67.90;52.88;;;23.80;57.70;;;;;;4900539;28;92273;-76
2022/06/21 14:18:17;;;;;;;68.15;52.72;;;23.80;57.70;;;;;;4906894;28;89993;-78
2022/06/21 14:21:07;;;;;;;69.18;52.53;;;23.80;57.70;;;;;;4934002;28;91147;-77
2022/06/21 14:23:42;;;;;;;66.65;52.42;;;23.80;57.70;;;;;;4934552;28;89819;-76